Terminal Aerodrome Forecast
Issued by NWS

Home | Current Version | Previous Version | Text Only | Print | Product List | Glossary On
Versions: 1 2 3 4 5 6 7 8 9 10 11 12 13 14 15 16 17 18 19 20
247
FTUS43 KAPX 091137
TAFAPN
TAF
KAPN 091137Z 0912/1012 32011G16KT 3SM -SN BKN012 OVC030
     FM091700 35012G20KT 5SM -SN BLSN OVC008
     FM092200 35012G20KT P6SM -SN OVC015
     FM100500 34009G15KT 2SM -SHSN OVC015
     FM100900 33009G18KT P6SM VCSH OVC019=

USA.gov is the U.S. government's official web portal to all federal, state and local government web resources and services.